sensor_id;sensor_type;location;lat;lon;timestamp;temperature;humidity
13808;DHT22;40769;51.512;5.494;2023-05-18T00:01:54;9.90;99.90
13808;DHT22;40769;51.512;5.494;2023-05-18T00:04:19;9.80;99.90
13808;DHT22;40769;51.512;5.494;2023-05-18T00:06:51;9.90;99.90
13808;DHT22;40769;51.512;5.494;2023-05-18T00:09:28;9.80;99.90
13808;DHT22;40769;51.512;5.494;2023-05-18T00:11:55;9.80;99.90
13808;DHT22;40769;51.512;5.494;2023-05-18T00:14:20;9.90;99.90
13808;DHT22;40769;51.512;5.494;2023-05-18T00:16:46;9.70;99.90
13808;DHT22;40769;51.512;5.494;2023-05-18T00:19:13;9.70;99.90
13808;DHT22;40769;51.512;5.494;2023-05-18T00:21:45;9.60;99.90
13808;DHT22;40769;51.512;5.494;2023-05-18T00:24:12;9.60;99.90
13808;DHT22;40769;51.512;5.494;2023-05-18T00:26:38;9.90;99.90
13808;DHT22;40769;51.512;5.494;2023-05-18T00:29:05;9.60;99.90
13808;DHT22;40769;51.512;5.494;2023-05-18T00:31:32;9.50;99.90
13808;DHT22;40769;51.512;5.494;2023-05-18T00:34:11;9.90;99.90
13808;DHT22;40769;51.512;5.494;2023-05-18T00:36:38;9.40;99.90
13808;DHT22;40769;51.512;5.494;2023-05-18T00:39:04;9.40;99.90
13808;DHT22;40769;51.512;5.494;2023-05-18T00:41:31;9.40;99.90
13808;DHT22;40769;51.512;5.494;2023-05-18T00:43:57;9.40;99.90
13808;DHT22;40769;51.512;5.494;2023-05-18T00:46:24;9.30;99.90
13808;DHT22;40769;51.512;5.494;2023-05-18T00:48:50;9.30;99.90
13808;DHT22;40769;51.512;5.494;2023-05-18T00:51:20;9.30;99.90
13808;DHT22;40769;51.512;5.494;2023-05-18T00:53:52;9.30;99.90
13808;DHT22;40769;51.512;5.494;2023-05-18T00:56:18;9.20;99.90
13808;DHT22;40769;51.512;5.494;2023-05-18T00:58:44;9.20;99.90
13808;DHT22;40769;51.512;5.494;2023-05-18T01:01:10;9.20;99.90
13808;DHT22;40769;51.512;5.494;2023-05-18T01:03:36;9.20;99.90
13808;DHT22;40769;51.512;5.494;2023-05-18T01:06:05;9.10;99.90
13808;DHT22;40769;51.512;5.494;2023-05-18T01:08:31;9.10;99.90
13808;DHT22;40769;51.512;5.494;2023-05-18T01:11:15;8.90;99.90
13808;DHT22;40769;51.512;5.494;2023-05-18T01:16:23;9.10;99.90
13808;DHT22;40769;51.512;5.494;2023-05-18T01:18:58;9.10;99.90
13808;DHT22;40769;51.512;5.494;2023-05-18T01:21:56;9.00;99.90
13808;DHT22;40769;51.512;5.494;2023-05-18T01:24:44;9.00;99.90
13808;DHT22;40769;51.512;5.494;2023-05-18T01:27:15;9.00;99.90
13808;DHT22;40769;51.512;5.494;2023-05-18T01:29:43;9.00;99.90
13808;DHT22;40769;51.512;5.494;2023-05-18T01:32:20;8.90;99.90
13808;DHT22;40769;51.512;5.494;2023-05-18T01:34:46;8.90;99.90
13808;DHT22;40769;51.512;5.494;2023-05-18T01:37:12;8.90;99.90
13808;DHT22;40769;51.512;5.494;2023-05-18T01:39:38;8.90;99.90
13808;DHT22;40769;51.512;5.494;2023-05-18T01:42:08;8.90;99.90
13808;DHT22;40769;51.512;5.494;2023-05-18T01:44:40;8.90;99.90
13808;DHT22;40769;51.512;5.494;2023-05-18T01:47:12;8.90;99.90
13808;DHT22;40769;51.512;5.494;2023-05-18T01:49:52;9.40;99.90
13808;DHT22;40769;51.512;5.494;2023-05-18T01:52:43;8.80;99.90
13808;DHT22;40769;51.512;5.494;2023-05-18T01:55:09;8.80;99.90
13808;DHT22;40769;51.512;5.494;2023-05-18T01:57:37;8.60;99.90
13808;DHT22;40769;51.512;5.494;2023-05-18T02:00:04;8.40;99.90
13808;DHT22;40769;51.512;5.494;2023-05-18T02:02:32;8.40;99.90
13808;DHT22;40769;51.512;5.494;2023-05-18T02:04:58;8.40;99.90
13808;DHT22;40769;51.512;5.494;2023-05-18T02:07:23;8.40;99.90
13808;DHT22;40769;51.512;5.494;2023-05-18T02:09:49;8.40;99.90
13808;DHT22;40769;51.512;5.494;2023-05-18T02:12:15;8.40;99.90
13808;DHT22;40769;51.512;5.494;2023-05-18T02:14:40;8.40;99.90
13808;DHT22;40769;51.512;5.494;2023-05-18T02:17:06;8.50;99.90
13808;DHT22;40769;51.512;5.494;2023-05-18T02:19:32;8.40;99.90
13808;DHT22;40769;51.512;5.494;2023-05-18T02:21:58;8.50;99.90
13808;DHT22;40769;51.512;5.494;2023-05-18T02:24:24;8.50;99.90
13808;DHT22;40769;51.512;5.494;2023-05-18T02:26:50;8.50;99.90
13808;DHT22;40769;51.512;5.494;2023-05-18T02:29:16;8.50;99.90
13808;DHT22;40769;51.512;5.494;2023-05-18T02:31:42;8.50;99.90
13808;DHT22;40769;51.512;5.494;2023-05-18T02:34:07;8.60;99.90
13808;DHT22;40769;51.512;5.494;2023-05-18T02:36:33;8.50;99.90
13808;DHT22;40769;51.512;5.494;2023-05-18T02:39:05;9.00;99.90
13808;DHT22;40769;51.512;5.494;2023-05-18T02:41:31;8.50;99.90
13808;DHT22;40769;51.512;5.494;2023-05-18T02:43:57;8.50;99.90
13808;DHT22;40769;51.512;5.494;2023-05-18T02:46:23;8.50;99.90
13808;DHT22;40769;51.512;5.494;2023-05-18T02:48:49;8.50;99.90
13808;DHT22;40769;51.512;5.494;2023-05-18T02:51:14;8.50;99.90
13808;DHT22;40769;51.512;5.494;2023-05-18T02:53:40;8.50;99.90
13808;DHT22;40769;51.512;5.494;2023-05-18T02:56:08;8.50;99.90
13808;DHT22;40769;51.512;5.494;2023-05-18T02:58:34;8.50;99.90
13808;DHT22;40769;51.512;5.494;2023-05-18T03:01:00;8.50;99.90
13808;DHT22;40769;51.512;5.494;2023-05-18T03:03:28;8.50;99.90
13808;DHT22;40769;51.512;5.494;2023-05-18T03:05:53;8.50;99.90
13808;DHT22;40769;51.512;5.494;2023-05-18T03:08:20;8.40;99.90
13808;DHT22;40769;51.512;5.494;2023-05-18T03:10:47;8.50;99.90
13808;DHT22;40769;51.512;5.494;2023-05-18T03:13:13;8.40;99.90
13808;DHT22;40769;51.512;5.494;2023-05-18T03:15:39;8.40;99.90
13808;DHT22;40769;51.512;5.494;2023-05-18T03:18:05;8.40;99.90
13808;DHT22;40769;51.512;5.494;2023-05-18T03:20:31;8.30;99.90
13808;DHT22;40769;51.512;5.494;2023-05-18T03:22:57;8.30;99.90
13808;DHT22;40769;51.512;5.494;2023-05-18T03:25:22;8.30;99.90
13808;DHT22;40769;51.512;5.494;2023-05-18T03:27:50;8.30;99.90
13808;DHT22;40769;51.512;5.494;2023-05-18T03:30:17;8.30;99.90
13808;DHT22;40769;51.512;5.494;2023-05-18T03:32:45;8.30;99.90
13808;DHT22;40769;51.512;5.494;2023-05-18T03:35:11;8.20;99.90
13808;DHT22;40769;51.512;5.494;2023-05-18T03:37:37;8.20;99.90
13808;DHT22;40769;51.512;5.494;2023-05-18T03:40:14;8.20;99.90
13808;DHT22;40769;51.512;5.494;2023-05-18T03:42:40;8.20;99.90
13808;DHT22;40769;51.512;5.494;2023-05-18T03:45:07;8.20;99.90
13808;DHT22;40769;51.512;5.494;2023-05-18T03:47:33;8.20;99.90
13808;DHT22;40769;51.512;5.494;2023-05-18T03:49:59;8.20;99.90
13808;DHT22;40769;51.512;5.494;2023-05-18T03:52:25;8.20;99.90
13808;DHT22;40769;51.512;5.494;2023-05-18T03:54:50;8.10;99.90
13808;DHT22;40769;51.512;5.494;2023-05-18T03:57:17;8.10;99.90
13808;DHT22;40769;51.512;5.494;2023-05-18T03:59:43;8.10;99.90
13808;DHT22;40769;51.512;5.494;2023-05-18T04:02:10;8.20;99.90
13808;DHT22;40769;51.512;5.494;2023-05-18T04:04:36;8.10;99.90
13808;DHT22;40769;51.512;5.494;2023-05-18T04:07:06;8.10;99.90
13808;DHT22;40769;51.512;5.494;2023-05-18T04:09:32;8.10;99.90
13808;DHT22;40769;51.512;5.494;2023-05-18T04:11:58;8.10;99.90
13808;DHT22;40769;51.512;5.494;2023-05-18T04:14:23;8.20;99.90
13808;DHT22;40769;51.512;5.494;2023-05-18T04:16:52;8.20;99.90
13808;DHT22;40769;51.512;5.494;2023-05-18T04:19:18;8.20;99.90
13808;DHT22;40769;51.512;5.494;2023-05-18T04:21:46;8.30;99.90
13808;DHT22;40769;51.512;5.494;2023-05-18T04:24:13;8.30;99.90
13808;DHT22;40769;51.512;5.494;2023-05-18T04:26:40;8.40;99.90
13808;DHT22;40769;51.512;5.494;2023-05-18T04:29:07;8.40;99.90
13808;DHT22;40769;51.512;5.494;2023-05-18T04:31:35;8.40;99.90
13808;DHT22;40769;51.512;5.494;2023-05-18T04:34:01;8.90;99.90
13808;DHT22;40769;51.512;5.494;2023-05-18T04:36:27;8.50;99.90
13808;DHT22;40769;51.512;5.494;2023-05-18T04:38:56;8.50;99.90
13808;DHT22;40769;51.512;5.494;2023-05-18T04:41:23;8.70;99.90
13808;DHT22;40769;51.512;5.494;2023-05-18T04:43:49;8.60;99.90
13808;DHT22;40769;51.512;5.494;2023-05-18T04:46:15;8.60;99.90
13808;DHT22;40769;51.512;5.494;2023-05-18T04:48:41;8.70;99.90
13808;DHT22;40769;51.512;5.494;2023-05-18T04:51:07;8.70;99.90
13808;DHT22;40769;51.512;5.494;2023-05-18T04:53:33;8.70;99.90
13808;DHT22;40769;51.512;5.494;2023-05-18T04:56:00;8.80;99.90
13808;DHT22;40769;51.512;5.494;2023-05-18T04:58:26;8.80;99.90
13808;DHT22;40769;51.512;5.494;2023-05-18T05:00:52;8.90;99.90
13808;DHT22;40769;51.512;5.494;2023-05-18T05:03:18;8.90;99.90
13808;DHT22;40769;51.512;5.494;2023-05-18T05:05:44;9.00;99.90
13808;DHT22;40769;51.512;5.494;2023-05-18T05:08:09;9.00;99.90
13808;DHT22;40769;51.512;5.494;2023-05-18T05:10:36;9.10;99.90
13808;DHT22;40769;51.512;5.494;2023-05-18T05:13:02;9.10;99.90
13808;DHT22;40769;51.512;5.494;2023-05-18T05:15:28;9.20;99.90
13808;DHT22;40769;51.512;5.494;2023-05-18T05:17:54;9.20;99.90
13808;DHT22;40769;51.512;5.494;2023-05-18T05:20:20;9.30;99.90
13808;DHT22;40769;51.512;5.494;2023-05-18T05:22:45;9.30;99.90
13808;DHT22;40769;51.512;5.494;2023-05-18T05:25:11;9.60;99.90
13808;DHT22;40769;51.512;5.494;2023-05-18T05:27:37;9.40;99.90
13808;DHT22;40769;51.512;5.494;2023-05-18T05:30:03;9.40;99.90
13808;DHT22;40769;51.512;5.494;2023-05-18T05:32:29;9.50;99.90
13808;DHT22;40769;51.512;5.494;2023-05-18T05:34:54;9.60;99.90
13808;DHT22;40769;51.512;5.494;2023-05-18T05:37:20;9.70;99.90
13808;DHT22;40769;51.512;5.494;2023-05-18T05:39:46;9.70;99.90
13808;DHT22;40769;51.512;5.494;2023-05-18T05:42:12;9.70;99.90
13808;DHT22;40769;51.512;5.494;2023-05-18T05:44:38;9.80;99.90
13808;DHT22;40769;51.512;5.494;2023-05-18T05:47:05;9.90;99.90
13808;DHT22;40769;51.512;5.494;2023-05-18T05:49:31;9.90;99.90
13808;DHT22;40769;51.512;5.494;2023-05-18T05:51:57;10.00;99.90
13808;DHT22;40769;51.512;5.494;2023-05-18T05:54:22;10.00;99.90
13808;DHT22;40769;51.512;5.494;2023-05-18T05:56:48;10.10;99.90
13808;DHT22;40769;51.512;5.494;2023-05-18T05:59:14;10.10;99.90
13808;DHT22;40769;51.512;5.494;2023-05-18T06:01:40;10.20;99.90
13808;DHT22;40769;51.512;5.494;2023-05-18T06:04:05;10.20;99.90
13808;DHT22;40769;51.512;5.494;2023-05-18T06:06:36;10.20;99.90
13808;DHT22;40769;51.512;5.494;2023-05-18T06:09:02;10.30;99.90
13808;DHT22;40769;51.512;5.494;2023-05-18T06:11:29;10.40;99.90
13808;DHT22;40769;51.512;5.494;2023-05-18T06:13:55;10.60;99.90
13808;DHT22;40769;51.512;5.494;2023-05-18T06:16:21;10.60;99.90
13808;DHT22;40769;51.512;5.494;2023-05-18T06:18:47;10.60;99.90
13808;DHT22;40769;51.512;5.494;2023-05-18T06:21:14;10.70;99.90
13808;DHT22;40769;51.512;5.494;2023-05-18T06:23:39;10.90;99.90
13808;DHT22;40769;51.512;5.494;2023-05-18T06:26:05;11.40;99.90
13808;DHT22;40769;51.512;5.494;2023-05-18T06:28:31;11.20;99.90
13808;DHT22;40769;51.512;5.494;2023-05-18T06:30:57;11.50;99.90
13808;DHT22;40769;51.512;5.494;2023-05-18T06:33:23;11.70;99.90
13808;DHT22;40769;51.512;5.494;2023-05-18T06:35:48;12.00;99.90
13808;DHT22;40769;51.512;5.494;2023-05-18T06:38:14;12.30;99.90
13808;DHT22;40769;51.512;5.494;2023-05-18T06:40:40;12.50;99.90
13808;DHT22;40769;51.512;5.494;2023-05-18T06:43:05;12.80;99.90
13808;DHT22;40769;51.512;5.494;2023-05-18T06:45:31;13.10;99.90
13808;DHT22;40769;51.512;5.494;2023-05-18T06:47:56;13.40;99.90
13808;DHT22;40769;51.512;5.494;2023-05-18T06:50:22;13.70;99.90
13808;DHT22;40769;51.512;5.494;2023-05-18T06:52:48;14.10;99.90
13808;DHT22;40769;51.512;5.494;2023-05-18T06:55:13;14.30;99.90
13808;DHT22;40769;51.512;5.494;2023-05-18T06:57:39;14.70;99.90
13808;DHT22;40769;51.512;5.494;2023-05-18T07:00:07;15.00;99.90
13808;DHT22;40769;51.512;5.494;2023-05-18T07:02:33;15.30;99.90
13808;DHT22;40769;51.512;5.494;2023-05-18T07:04:59;15.60;99.90
13808;DHT22;40769;51.512;5.494;2023-05-18T07:07:26;15.90;99.90
13808;DHT22;40769;51.512;5.494;2023-05-18T07:09:51;16.20;99.90
13808;DHT22;40769;51.512;5.494;2023-05-18T07:12:19;16.50;99.90
13808;DHT22;40769;51.512;5.494;2023-05-18T07:14:45;16.80;99.90
13808;DHT22;40769;51.512;5.494;2023-05-18T07:17:10;17.10;99.90
13808;DHT22;40769;51.512;5.494;2023-05-18T07:19:36;17.30;99.90
13808;DHT22;40769;51.512;5.494;2023-05-18T07:22:01;17.40;99.90
13808;DHT22;40769;51.512;5.494;2023-05-18T07:24:29;17.60;99.90
13808;DHT22;40769;51.512;5.494;2023-05-18T07:26:54;17.80;99.90
13808;DHT22;40769;51.512;5.494;2023-05-18T07:29:20;18.00;99.90
13808;DHT22;40769;51.512;5.494;2023-05-18T07:31:46;18.20;99.90
13808;DHT22;40769;51.512;5.494;2023-05-18T07:34:11;18.40;99.90
13808;DHT22;40769;51.512;5.494;2023-05-18T07:36:37;18.50;99.90
13808;DHT22;40769;51.512;5.494;2023-05-18T07:39:03;18.70;99.90
13808;DHT22;40769;51.512;5.494;2023-05-18T07:41:28;19.00;99.90
13808;DHT22;40769;51.512;5.494;2023-05-18T07:43:56;19.10;99.90
13808;DHT22;40769;51.512;5.494;2023-05-18T07:46:21;19.30;99.90
13808;DHT22;40769;51.512;5.494;2023-05-18T07:48:47;19.40;99.90
13808;DHT22;40769;51.512;5.494;2023-05-18T07:51:13;19.50;99.90
13808;DHT22;40769;51.512;5.494;2023-05-18T07:53:38;19.70;99.90
13808;DHT22;40769;51.512;5.494;2023-05-18T07:56:06;19.80;99.90
13808;DHT22;40769;51.512;5.494;2023-05-18T07:58:34;19.80;99.90
13808;DHT22;40769;51.512;5.494;2023-05-18T08:01:00;19.90;99.90
13808;DHT22;40769;51.512;5.494;2023-05-18T08:03:26;19.90;99.90
13808;DHT22;40769;51.512;5.494;2023-05-18T08:05:51;19.90;99.90
13808;DHT22;40769;51.512;5.494;2023-05-18T08:08:17;20.00;99.90
13808;DHT22;40769;51.512;5.494;2023-05-18T08:10:43;20.10;99.90
13808;DHT22;40769;51.512;5.494;2023-05-18T08:13:08;20.10;99.90
13808;DHT22;40769;51.512;5.494;2023-05-18T08:15:34;20.20;99.90
13808;DHT22;40769;51.512;5.494;2023-05-18T08:18:00;20.40;99.90
13808;DHT22;40769;51.512;5.494;2023-05-18T08:20:26;20.50;99.90
13808;DHT22;40769;51.512;5.494;2023-05-18T08:22:55;20.50;99.90
13808;DHT22;40769;51.512;5.494;2023-05-18T08:25:21;20.60;99.90
13808;DHT22;40769;51.512;5.494;2023-05-18T08:27:47;20.70;99.90
13808;DHT22;40769;51.512;5.494;2023-05-18T08:30:13;20.80;99.90
13808;DHT22;40769;51.512;5.494;2023-05-18T08:32:39;20.90;99.90
13808;DHT22;40769;51.512;5.494;2023-05-18T08:35:05;21.00;99.90
13808;DHT22;40769;51.512;5.494;2023-05-18T08:37:33;21.30;99.90
13808;DHT22;40769;51.512;5.494;2023-05-18T08:39:58;21.30;99.90
13808;DHT22;40769;51.512;5.494;2023-05-18T08:42:34;21.30;99.90
13808;DHT22;40769;51.512;5.494;2023-05-18T08:45:17;21.40;99.90
13808;DHT22;40769;51.512;5.494;2023-05-18T08:47:46;21.50;99.90
13808;DHT22;40769;51.512;5.494;2023-05-18T08:50:15;21.70;99.90
13808;DHT22;40769;51.512;5.494;2023-05-18T08:52:46;21.80;99.90
13808;DHT22;40769;51.512;5.494;2023-05-18T08:55:12;21.90;99.90
13808;DHT22;40769;51.512;5.494;2023-05-18T08:57:41;22.10;99.90
13808;DHT22;40769;51.512;5.494;2023-05-18T09:00:09;22.30;99.90
13808;DHT22;40769;51.512;5.494;2023-05-18T09:02:37;22.50;99.90
13808;DHT22;40769;51.512;5.494;2023-05-18T09:05:02;22.60;99.90
13808;DHT22;40769;51.512;5.494;2023-05-18T09:07:30;22.70;99.90
13808;DHT22;40769;51.512;5.494;2023-05-18T09:09:56;22.70;99.90
13808;DHT22;40769;51.512;5.494;2023-05-18T09:12:23;22.80;99.90
13808;DHT22;40769;51.512;5.494;2023-05-18T09:14:50;22.80;99.90
13808;DHT22;40769;51.512;5.494;2023-05-18T09:17:17;22.80;99.90
13808;DHT22;40769;51.512;5.494;2023-05-18T09:19:43;22.80;99.90
13808;DHT22;40769;51.512;5.494;2023-05-18T09:22:08;22.90;99.90
13808;DHT22;40769;51.512;5.494;2023-05-18T09:24:36;22.90;99.90
13808;DHT22;40769;51.512;5.494;2023-05-18T09:27:03;23.00;99.90
13808;DHT22;40769;51.512;5.494;2023-05-18T09:29:29;23.10;98.30
13808;DHT22;40769;51.512;5.494;2023-05-18T09:31:55;23.00;98.00
13808;DHT22;40769;51.512;5.494;2023-05-18T09:34:20;22.90;96.80
13808;DHT22;40769;51.512;5.494;2023-05-18T09:36:49;22.80;96.60
13808;DHT22;40769;51.512;5.494;2023-05-18T09:39:17;22.80;96.50
13808;DHT22;40769;51.512;5.494;2023-05-18T09:41:43;22.70;97.10
13808;DHT22;40769;51.512;5.494;2023-05-18T09:44:08;22.80;97.10
13808;DHT22;40769;51.512;5.494;2023-05-18T09:46:38;22.90;97.30
13808;DHT22;40769;51.512;5.494;2023-05-18T09:49:05;23.00;96.70
13808;DHT22;40769;51.512;5.494;2023-05-18T09:51:35;23.10;96.30
13808;DHT22;40769;51.512;5.494;2023-05-18T09:54:01;23.20;94.80
13808;DHT22;40769;51.512;5.494;2023-05-18T09:56:30;23.10;95.10
13808;DHT22;40769;51.512;5.494;2023-05-18T09:59:10;23.00;94.90
13808;DHT22;40769;51.512;5.494;2023-05-18T10:01:37;22.90;93.70
13808;DHT22;40769;51.512;5.494;2023-05-18T10:04:19;22.80;94.60
13808;DHT22;40769;51.512;5.494;2023-05-18T10:06:49;22.70;94.50
13808;DHT22;40769;51.512;5.494;2023-05-18T10:09:15;22.70;94.10
13808;DHT22;40769;51.512;5.494;2023-05-18T10:11:41;22.70;94.90
13808;DHT22;40769;51.512;5.494;2023-05-18T10:14:10;22.20;94.70
13808;DHT22;40769;51.512;5.494;2023-05-18T10:16:35;22.80;94.00
13808;DHT22;40769;51.512;5.494;2023-05-18T10:19:02;22.80;94.10
13808;DHT22;40769;51.512;5.494;2023-05-18T10:21:33;22.80;93.70
13808;DHT22;40769;51.512;5.494;2023-05-18T10:23:59;22.90;93.40
13808;DHT22;40769;51.512;5.494;2023-05-18T10:26:29;22.90;92.70
13808;DHT22;40769;51.512;5.494;2023-05-18T10:28:58;22.90;91.90
13808;DHT22;40769;51.512;5.494;2023-05-18T10:31:24;22.80;92.70
13808;DHT22;40769;51.512;5.494;2023-05-18T10:33:52;22.80;93.00
13808;DHT22;40769;51.512;5.494;2023-05-18T10:36:18;22.90;93.20
13808;DHT22;40769;51.512;5.494;2023-05-18T10:38:45;23.00;93.70
13808;DHT22;40769;51.512;5.494;2023-05-18T10:41:12;23.10;92.20
13808;DHT22;40769;51.512;5.494;2023-05-18T10:43:40;23.10;91.20
13808;DHT22;40769;51.512;5.494;2023-05-18T10:46:07;23.10;91.60
13808;DHT22;40769;51.512;5.494;2023-05-18T10:48:37;23.00;92.00
13808;DHT22;40769;51.512;5.494;2023-05-18T10:51:03;23.20;90.80
13808;DHT22;40769;51.512;5.494;2023-05-18T10:53:32;23.30;90.50
13808;DHT22;40769;51.512;5.494;2023-05-18T10:55:58;23.20;90.80
13808;DHT22;40769;51.512;5.494;2023-05-18T10:58:28;23.20;90.90
13808;DHT22;40769;51.512;5.494;2023-05-18T11:00:59;23.20;90.40
13808;DHT22;40769;51.512;5.494;2023-05-18T11:03:26;23.30;90.50
13808;DHT22;40769;51.512;5.494;2023-05-18T11:06:03;23.30;90.80
13808;DHT22;40769;51.512;5.494;2023-05-18T11:08:31;23.40;88.50
13808;DHT22;40769;51.512;5.494;2023-05-18T11:13:34;23.40;89.30
13808;DHT22;40769;51.512;5.494;2023-05-18T11:16:04;23.50;89.60
13808;DHT22;40769;51.512;5.494;2023-05-18T11:20:58;23.70;90.40
13808;DHT22;40769;51.512;5.494;2023-05-18T11:23:29;23.90;90.70
13808;DHT22;40769;51.512;5.494;2023-05-18T11:25:59;24.10;90.60
13808;DHT22;40769;51.512;5.494;2023-05-18T11:28:27;24.20;87.90
13808;DHT22;40769;51.512;5.494;2023-05-18T11:30:53;24.40;89.20
13808;DHT22;40769;51.512;5.494;2023-05-18T11:33:27;24.50;87.50
13808;DHT22;40769;51.512;5.494;2023-05-18T11:36:05;24.50;84.90
13808;DHT22;40769;51.512;5.494;2023-05-18T11:39:01;24.50;84.90
13808;DHT22;40769;51.512;5.494;2023-05-18T11:49:31;24.70;85.30
13808;DHT22;40769;51.512;5.494;2023-05-18T11:54:37;24.90;83.00
13808;DHT22;40769;51.512;5.494;2023-05-18T11:57:03;24.90;81.90
13808;DHT22;40769;51.512;5.494;2023-05-18T11:59:37;24.80;82.80
13808;DHT22;40769;51.512;5.494;2023-05-18T12:02:04;24.70;81.30
13808;DHT22;40769;51.512;5.494;2023-05-18T12:04:30;24.60;82.30
13808;DHT22;40769;51.512;5.494;2023-05-18T12:06:58;24.60;82.50
13808;DHT22;40769;51.512;5.494;2023-05-18T12:09:26;24.10;80.90
13808;DHT22;40769;51.512;5.494;2023-05-18T12:11:54;24.50;81.30
13808;DHT22;40769;51.512;5.494;2023-05-18T12:14:20;24.50;81.10
13808;DHT22;40769;51.512;5.494;2023-05-18T12:16:47;24.50;81.30
13808;DHT22;40769;51.512;5.494;2023-05-18T12:19:14;24.50;81.20
13808;DHT22;40769;51.512;5.494;2023-05-18T12:21:39;24.50;81.20
13808;DHT22;40769;51.512;5.494;2023-05-18T12:24:05;24.50;80.80
13808;DHT22;40769;51.512;5.494;2023-05-18T12:26:31;24.50;80.60
13808;DHT22;40769;51.512;5.494;2023-05-18T12:28:59;24.50;80.10
13808;DHT22;40769;51.512;5.494;2023-05-18T12:31:26;24.60;79.90
13808;DHT22;40769;51.512;5.494;2023-05-18T12:33:55;24.70;80.30
13808;DHT22;40769;51.512;5.494;2023-05-18T12:36:21;24.80;79.00
13808;DHT22;40769;51.512;5.494;2023-05-18T12:38:56;24.80;79.10
13808;DHT22;40769;51.512;5.494;2023-05-18T12:41:26;24.90;77.40
13808;DHT22;40769;51.512;5.494;2023-05-18T12:43:52;24.90;77.80
13808;DHT22;40769;51.512;5.494;2023-05-18T12:46:23;24.80;78.80
13808;DHT22;40769;51.512;5.494;2023-05-18T12:48:56;24.80;77.30
13808;DHT22;40769;51.512;5.494;2023-05-18T12:51:23;24.70;76.40
13808;DHT22;40769;51.512;5.494;2023-05-18T12:53:49;24.60;77.30
13808;DHT22;40769;51.512;5.494;2023-05-18T12:56:15;24.50;77.40
13808;DHT22;40769;51.512;5.494;2023-05-18T12:59:02;24.40;76.80
13808;DHT22;40769;51.512;5.494;2023-05-18T13:01:40;24.40;76.70
13808;DHT22;40769;51.512;5.494;2023-05-18T13:04:09;24.50;76.40
13808;DHT22;40769;51.512;5.494;2023-05-18T13:06:37;24.60;78.00
13808;DHT22;40769;51.512;5.494;2023-05-18T13:09:06;24.80;78.20
13808;DHT22;40769;51.512;5.494;2023-05-18T13:11:32;25.00;78.80
13808;DHT22;40769;51.512;5.494;2023-05-18T13:14:07;25.20;78.70
13808;DHT22;40769;51.512;5.494;2023-05-18T13:16:43;25.50;78.10
13808;DHT22;40769;51.512;5.494;2023-05-18T13:19:10;25.80;77.00
13808;DHT22;40769;51.512;5.494;2023-05-18T13:21:35;26.10;76.30
13808;DHT22;40769;51.512;5.494;2023-05-18T13:24:02;26.30;75.70
13808;DHT22;40769;51.512;5.494;2023-05-18T13:26:29;26.50;75.60
13808;DHT22;40769;51.512;5.494;2023-05-18T13:28:56;26.70;74.80
13808;DHT22;40769;51.512;5.494;2023-05-18T13:31:22;26.90;73.50
13808;DHT22;40769;51.512;5.494;2023-05-18T13:33:49;27.00;73.40
13808;DHT22;40769;51.512;5.494;2023-05-18T13:36:15;27.20;73.30
13808;DHT22;40769;51.512;5.494;2023-05-18T13:38:41;27.40;73.80
13808;DHT22;40769;51.512;5.494;2023-05-18T13:41:09;27.60;73.40
13808;DHT22;40769;51.512;5.494;2023-05-18T13:43:36;27.80;71.60
13808;DHT22;40769;51.512;5.494;2023-05-18T13:46:02;27.90;71.30
13808;DHT22;40769;51.512;5.494;2023-05-18T13:48:28;27.90;68.90
13808;DHT22;40769;51.512;5.494;2023-05-18T13:50:54;27.80;68.50
13808;DHT22;40769;51.512;5.494;2023-05-18T13:53:21;27.70;67.80
13808;DHT22;40769;51.512;5.494;2023-05-18T13:55:47;27.50;66.90
13808;DHT22;40769;51.512;5.494;2023-05-18T13:58:12;27.20;65.90
13808;DHT22;40769;51.512;5.494;2023-05-18T14:00:38;26.90;66.30
13808;DHT22;40769;51.512;5.494;2023-05-18T14:03:04;26.60;66.40
13808;DHT22;40769;51.512;5.494;2023-05-18T14:05:30;26.40;66.40
13808;DHT22;40769;51.512;5.494;2023-05-18T14:07:56;26.10;66.60
13808;DHT22;40769;51.512;5.494;2023-05-18T14:10:21;26.10;65.30
13808;DHT22;40769;51.512;5.494;2023-05-18T14:12:47;25.80;65.60
13808;DHT22;40769;51.512;5.494;2023-05-18T14:15:13;25.60;65.40
13808;DHT22;40769;51.512;5.494;2023-05-18T14:17:39;25.40;65.50
13808;DHT22;40769;51.512;5.494;2023-05-18T14:20:06;25.10;65.70
13808;DHT22;40769;51.512;5.494;2023-05-18T14:22:32;24.90;65.80
13808;DHT22;40769;51.512;5.494;2023-05-18T14:24:58;24.70;66.00
13808;DHT22;40769;51.512;5.494;2023-05-18T14:27:25;24.60;66.00
13808;DHT22;40769;51.512;5.494;2023-05-18T14:29:51;24.50;66.30
13808;DHT22;40769;51.512;5.494;2023-05-18T14:32:17;24.30;66.90
13808;DHT22;40769;51.512;5.494;2023-05-18T14:34:45;24.30;67.40
13808;DHT22;40769;51.512;5.494;2023-05-18T14:37:11;24.20;67.50
13808;DHT22;40769;51.512;5.494;2023-05-18T14:39:37;24.30;68.00
13808;DHT22;40769;51.512;5.494;2023-05-18T14:42:04;24.50;68.80
13808;DHT22;40769;51.512;5.494;2023-05-18T14:44:29;24.80;69.40
13808;DHT22;40769;51.512;5.494;2023-05-18T14:46:55;25.10;69.60
13808;DHT22;40769;51.512;5.494;2023-05-18T14:49:21;25.40;69.20
13808;DHT22;40769;51.512;5.494;2023-05-18T14:51:47;25.70;68.50
13808;DHT22;40769;51.512;5.494;2023-05-18T14:54:12;25.90;68.40
13808;DHT22;40769;51.512;5.494;2023-05-18T14:56:38;26.10;68.00
13808;DHT22;40769;51.512;5.494;2023-05-18T14:59:04;26.40;67.90
13808;DHT22;40769;51.512;5.494;2023-05-18T15:01:29;26.50;67.30
13808;DHT22;40769;51.512;5.494;2023-05-18T15:03:55;26.70;67.70
13808;DHT22;40769;51.512;5.494;2023-05-18T15:06:21;27.00;68.00
13808;DHT22;40769;51.512;5.494;2023-05-18T15:08:46;27.20;67.40
13808;DHT22;40769;51.512;5.494;2023-05-18T15:11:12;27.40;67.00
13808;DHT22;40769;51.512;5.494;2023-05-18T15:13:37;27.60;66.10
13808;DHT22;40769;51.512;5.494;2023-05-18T15:16:05;27.70;65.70
13808;DHT22;40769;51.512;5.494;2023-05-18T15:18:30;27.80;65.20
13808;DHT22;40769;51.512;5.494;2023-05-18T15:20:56;27.80;64.70
13808;DHT22;40769;51.512;5.494;2023-05-18T15:23:22;27.80;64.10
13808;DHT22;40769;51.512;5.494;2023-05-18T15:25:49;27.80;64.20
13808;DHT22;40769;51.512;5.494;2023-05-18T15:28:15;27.80;62.40
13808;DHT22;40769;51.512;5.494;2023-05-18T15:30:41;27.80;62.10
13808;DHT22;40769;51.512;5.494;2023-05-18T15:33:07;27.70;61.60
13808;DHT22;40769;51.512;5.494;2023-05-18T15:35:32;27.50;61.30
13808;DHT22;40769;51.512;5.494;2023-05-18T15:38:00;27.40;61.50
13808;DHT22;40769;51.512;5.494;2023-05-18T15:40:29;27.30;61.10
13808;DHT22;40769;51.512;5.494;2023-05-18T15:42:54;27.30;61.00
13808;DHT22;40769;51.512;5.494;2023-05-18T15:45:20;27.20;61.10
13808;DHT22;40769;51.512;5.494;2023-05-18T15:47:45;27.20;61.10
13808;DHT22;40769;51.512;5.494;2023-05-18T15:50:11;27.10;60.60
13808;DHT22;40769;51.512;5.494;2023-05-18T15:52:37;27.10;61.20
13808;DHT22;40769;51.512;5.494;2023-05-18T15:55:03;27.00;61.00
13808;DHT22;40769;51.512;5.494;2023-05-18T15:57:29;27.00;60.20